sensor_id;sensor_type;location;lat;lon;timestamp;P1;durP1;ratioP1;P2;durP2;ratioP2
40907;SDS011;51055;59.436;24.778;2023-02-01T00:01:34;6.07;;;1.67;;
40907;SDS011;51055;59.436;24.778;2023-02-01T00:04:01;7.35;;;1.75;;
40907;SDS011;51055;59.436;24.778;2023-02-01T00:06:28;4.75;;;1.58;;
40907;SDS011;51055;59.436;24.778;2023-02-01T00:08:55;4.82;;;1.90;;
40907;SDS011;51055;59.436;24.778;2023-02-01T00:11:23;7.50;;;1.58;;
40907;SDS011;51055;59.436;24.778;2023-02-01T00:13:51;6.03;;;1.73;;
40907;SDS011;51055;59.436;24.778;2023-02-01T00:16:22;4.57;;;1.52;;
40907;SDS011;51055;59.436;24.778;2023-02-01T00:18:50;8.02;;;1.63;;
40907;SDS011;51055;59.436;24.778;2023-02-01T00:21:19;4.53;;;1.40;;
40907;SDS011;51055;59.436;24.778;2023-02-01T00:23:46;5.85;;;1.60;;
40907;SDS011;51055;59.436;24.778;2023-02-01T00:26:18;5.82;;;1.52;;
40907;SDS011;51055;59.436;24.778;2023-02-01T00:28:46;6.15;;;1.58;;
40907;SDS011;51055;59.436;24.778;2023-02-01T00:31:13;8.55;;;1.70;;
40907;SDS011;51055;59.436;24.778;2023-02-01T00:33:42;11.10;;;2.33;;
40907;SDS011;51055;59.436;24.778;2023-02-01T00:36:09;6.80;;;1.90;;
40907;SDS011;51055;59.436;24.778;2023-02-01T00:38:36;2.55;;;1.25;;
40907;SDS011;51055;59.436;24.778;2023-02-01T00:41:05;4.38;;;1.52;;
40907;SDS011;51055;59.436;24.778;2023-02-01T00:43:33;6.03;;;1.73;;
40907;SDS011;51055;59.436;24.778;2023-02-01T00:46:00;4.68;;;1.30;;
40907;SDS011;51055;59.436;24.778;2023-02-01T00:48:28;6.38;;;1.45;;
40907;SDS011;51055;59.436;24.778;2023-02-01T00:50:59;5.80;;;1.42;;
40907;SDS011;51055;59.436;24.778;2023-02-01T00:53:26;6.03;;;1.40;;
40907;SDS011;51055;59.436;24.778;2023-02-01T00:55:53;5.65;;;1.55;;
40907;SDS011;51055;59.436;24.778;2023-02-01T00:58:20;6.70;;;1.55;;
40907;SDS011;51055;59.436;24.778;2023-02-01T01:00:49;7.35;;;1.48;;
40907;SDS011;51055;59.436;24.778;2023-02-01T01:03:17;5.32;;;1.73;;
40907;SDS011;51055;59.436;24.778;2023-02-01T01:05:45;5.30;;;1.63;;
40907;SDS011;51055;59.436;24.778;2023-02-01T01:08:13;7.72;;;1.60;;
40907;SDS011;51055;59.436;24.778;2023-02-01T01:10:41;4.57;;;1.63;;
40907;SDS011;51055;59.436;24.778;2023-02-01T01:13:08;6.32;;;1.58;;
40907;SDS011;51055;59.436;24.778;2023-02-01T01:15:39;7.97;;;1.83;;
40907;SDS011;51055;59.436;24.778;2023-02-01T01:18:07;5.72;;;1.58;;
40907;SDS011;51055;59.436;24.778;2023-02-01T01:20:35;6.37;;;1.60;;
40907;SDS011;51055;59.436;24.778;2023-02-01T01:23:05;2.30;;;1.10;;
40907;SDS011;51055;59.436;24.778;2023-02-01T01:25:37;6.80;;;1.52;;
40907;SDS011;51055;59.436;24.778;2023-02-01T01:28:04;4.95;;;1.60;;
40907;SDS011;51055;59.436;24.778;2023-02-01T01:30:32;5.47;;;1.40;;
40907;SDS011;51055;59.436;24.778;2023-02-01T01:32:59;2.57;;;1.20;;
40907;SDS011;51055;59.436;24.778;2023-02-01T01:35:28;7.30;;;1.60;;
40907;SDS011;51055;59.436;24.778;2023-02-01T01:37:56;3.83;;;1.30;;
40907;SDS011;51055;59.436;24.778;2023-02-01T01:40:23;4.18;;;1.38;;
40907;SDS011;51055;59.436;24.778;2023-02-01T01:42:50;7.00;;;1.60;;
40907;SDS011;51055;59.436;24.778;2023-02-01T01:47:48;4.25;;;1.63;;
40907;SDS011;51055;59.436;24.778;2023-02-01T01:50:20;7.05;;;1.70;;
40907;SDS011;51055;59.436;24.778;2023-02-01T01:52:49;4.07;;;1.40;;
40907;SDS011;51055;59.436;24.778;2023-02-01T01:55:18;5.72;;;1.52;;
40907;SDS011;51055;59.436;24.778;2023-02-01T01:57:48;6.15;;;1.38;;
40907;SDS011;51055;59.436;24.778;2023-02-01T02:00:17;3.95;;;1.48;;
40907;SDS011;51055;59.436;24.778;2023-02-01T02:02:47;5.28;;;1.55;;
40907;SDS011;51055;59.436;24.778;2023-02-01T02:05:15;4.63;;;1.40;;
40907;SDS011;51055;59.436;24.778;2023-02-01T02:07:45;5.57;;;1.30;;
40907;SDS011;51055;59.436;24.778;2023-02-01T02:12:40;2.65;;;1.08;;
40907;SDS011;51055;59.436;24.778;2023-02-01T02:15:08;5.57;;;1.17;;
40907;SDS011;51055;59.436;24.778;2023-02-01T02:38:55;2.38;;;1.10;;
40907;SDS011;51055;59.436;24.778;2023-02-01T02:44:32;2.65;;;1.30;;
40907;SDS011;51055;59.436;24.778;2023-02-01T02:50:10;4.93;;;1.45;;
40907;SDS011;51055;59.436;24.778;2023-02-01T02:53:00;3.28;;;1.20;;
40907;SDS011;51055;59.436;24.778;2023-02-01T02:55:47;3.83;;;1.83;;
40907;SDS011;51055;59.436;24.778;2023-02-01T02:58:15;3.33;;;1.17;;
40907;SDS011;51055;59.436;24.778;2023-02-01T03:01:01;7.80;;;1.40;;
40907;SDS011;51055;59.436;24.778;2023-02-01T03:03:49;6.20;;;1.50;;
40907;SDS011;51055;59.436;24.778;2023-02-01T03:06:36;5.35;;;1.60;;
40907;SDS011;51055;59.436;24.778;2023-02-01T03:09:04;5.38;;;1.42;;
40907;SDS011;51055;59.436;24.778;2023-02-01T03:11:35;6.03;;;2.00;;
40907;SDS011;51055;59.436;24.778;2023-02-01T03:14:21;4.65;;;2.10;;
40907;SDS011;51055;59.436;24.778;2023-02-01T03:16:50;5.03;;;1.77;;
40907;SDS011;51055;59.436;24.778;2023-02-01T03:19:20;6.22;;;1.60;;
40907;SDS011;51055;59.436;24.778;2023-02-01T03:26:54;9.45;;;1.70;;
40907;SDS011;51055;59.436;24.778;2023-02-01T03:29:23;4.67;;;1.90;;
40907;SDS011;51055;59.436;24.778;2023-02-01T03:31:52;3.83;;;1.42;;
40907;SDS011;51055;59.436;24.778;2023-02-01T03:34:20;4.50;;;1.42;;
40907;SDS011;51055;59.436;24.778;2023-02-01T03:36:48;6.35;;;1.70;;
40907;SDS011;51055;59.436;24.778;2023-02-01T03:39:24;6.15;;;1.80;;
40907;SDS011;51055;59.436;24.778;2023-02-01T03:41:53;4.78;;;1.38;;
40907;SDS011;51055;59.436;24.778;2023-02-01T03:44:29;5.68;;;1.38;;
40907;SDS011;51055;59.436;24.778;2023-02-01T03:46:59;5.82;;;2.15;;
40907;SDS011;51055;59.436;24.778;2023-02-01T03:49:27;5.15;;;1.60;;
40907;SDS011;51055;59.436;24.778;2023-02-01T03:51:56;4.55;;;1.67;;
40907;SDS011;51055;59.436;24.778;2023-02-01T03:54:25;3.83;;;1.50;;
40907;SDS011;51055;59.436;24.778;2023-02-01T03:56:54;6.90;;;1.30;;
40907;SDS011;51055;59.436;24.778;2023-02-01T04:01:51;4.18;;;1.10;;
40907;SDS011;51055;59.436;24.778;2023-02-01T04:04:18;5.47;;;1.52;;
40907;SDS011;51055;59.436;24.778;2023-02-01T04:06:48;4.97;;;2.10;;
40907;SDS011;51055;59.436;24.778;2023-02-01T04:09:16;5.87;;;1.87;;
40907;SDS011;51055;59.436;24.778;2023-02-01T04:11:43;4.40;;;1.50;;
40907;SDS011;51055;59.436;24.778;2023-02-01T04:14:11;9.13;;;1.52;;
40907;SDS011;51055;59.436;24.778;2023-02-01T04:16:38;6.25;;;1.60;;
40907;SDS011;51055;59.436;24.778;2023-02-01T04:19:06;6.18;;;1.80;;
40907;SDS011;51055;59.436;24.778;2023-02-01T04:21:33;5.50;;;1.60;;
40907;SDS011;51055;59.436;24.778;2023-02-01T04:24:05;8.75;;;1.52;;
40907;SDS011;51055;59.436;24.778;2023-02-01T04:26:33;6.10;;;1.58;;
40907;SDS011;51055;59.436;24.778;2023-02-01T04:29:00;7.18;;;2.47;;
40907;SDS011;51055;59.436;24.778;2023-02-01T04:31:27;5.80;;;1.52;;
40907;SDS011;51055;59.436;24.778;2023-02-01T04:33:55;4.57;;;1.38;;
40907;SDS011;51055;59.436;24.778;2023-02-01T04:36:24;6.18;;;1.60;;
40907;SDS011;51055;59.436;24.778;2023-02-01T04:38:52;6.63;;;1.70;;
40907;SDS011;51055;59.436;24.778;2023-02-01T04:41:19;6.53;;;1.48;;
40907;SDS011;51055;59.436;24.778;2023-02-01T04:43:47;10.18;;;1.80;;
40907;SDS011;51055;59.436;24.778;2023-02-01T04:46:15;6.28;;;1.65;;
40907;SDS011;51055;59.436;24.778;2023-02-01T04:48:43;5.50;;;1.70;;
40907;SDS011;51055;59.436;24.778;2023-02-01T04:51:10;5.30;;;1.55;;
40907;SDS011;51055;59.436;24.778;2023-02-01T04:53:37;9.13;;;1.80;;
40907;SDS011;51055;59.436;24.778;2023-02-01T04:56:05;6.43;;;2.10;;
40907;SDS011;51055;59.436;24.778;2023-02-01T04:58:33;5.57;;;1.70;;
40907;SDS011;51055;59.436;24.778;2023-02-01T05:01:02;9.70;;;4.03;;
40907;SDS011;51055;59.436;24.778;2023-02-01T05:03:31;10.60;;;4.00;;
40907;SDS011;51055;59.436;24.778;2023-02-01T05:05:59;8.38;;;2.40;;
40907;SDS011;51055;59.436;24.778;2023-02-01T05:08:27;8.50;;;2.53;;
40907;SDS011;51055;59.436;24.778;2023-02-01T05:10:55;4.40;;;1.90;;
40907;SDS011;51055;59.436;24.778;2023-02-01T05:13:22;9.73;;;2.72;;
40907;SDS011;51055;59.436;24.778;2023-02-01T05:16:08;8.40;;;2.67;;
40907;SDS011;51055;59.436;24.778;2023-02-01T05:18:36;10.55;;;2.72;;
40907;SDS011;51055;59.436;24.778;2023-02-01T05:21:03;6.65;;;2.35;;
40907;SDS011;51055;59.436;24.778;2023-02-01T05:23:31;5.90;;;2.30;;
40907;SDS011;51055;59.436;24.778;2023-02-01T05:26:01;7.28;;;1.90;;
40907;SDS011;51055;59.436;24.778;2023-02-01T05:28:29;5.85;;;2.05;;
40907;SDS011;51055;59.436;24.778;2023-02-01T05:30:56;8.38;;;2.15;;
40907;SDS011;51055;59.436;24.778;2023-02-01T05:33:23;9.20;;;2.13;;
40907;SDS011;51055;59.436;24.778;2023-02-01T05:35:51;5.68;;;2.00;;
40907;SDS011;51055;59.436;24.778;2023-02-01T05:38:18;10.25;;;3.22;;
40907;SDS011;51055;59.436;24.778;2023-02-01T05:40:45;8.25;;;2.40;;
40907;SDS011;51055;59.436;24.778;2023-02-01T05:43:16;9.90;;;2.42;;
40907;SDS011;51055;59.436;24.778;2023-02-01T05:45:44;8.85;;;3.20;;
40907;SDS011;51055;59.436;24.778;2023-02-01T05:48:11;10.65;;;3.92;;
40907;SDS011;51055;59.436;24.778;2023-02-01T05:50:39;9.43;;;3.92;;
40907;SDS011;51055;59.436;24.778;2023-02-01T05:53:06;10.25;;;2.80;;
40907;SDS011;51055;59.436;24.778;2023-02-01T05:55:33;6.50;;;2.22;;
40907;SDS011;51055;59.436;24.778;2023-02-01T05:58:00;6.80;;;2.20;;
40907;SDS011;51055;59.436;24.778;2023-02-01T06:00:28;7.88;;;2.20;;
40907;SDS011;51055;59.436;24.778;2023-02-01T06:02:55;7.68;;;2.40;;
40907;SDS011;51055;59.436;24.778;2023-02-01T06:05:22;6.85;;;2.55;;
40907;SDS011;51055;59.436;24.778;2023-02-01T06:07:50;7.20;;;2.25;;
40907;SDS011;51055;59.436;24.778;2023-02-01T06:10:17;8.75;;;2.60;;
40907;SDS011;51055;59.436;24.778;2023-02-01T06:12:45;12.48;;;2.67;;
40907;SDS011;51055;59.436;24.778;2023-02-01T06:15:12;10.10;;;3.08;;
40907;SDS011;51055;59.436;24.778;2023-02-01T06:17:40;10.30;;;3.40;;
40907;SDS011;51055;59.436;24.778;2023-02-01T06:20:08;13.05;;;3.72;;
40907;SDS011;51055;59.436;24.778;2023-02-01T06:22:38;9.02;;;3.38;;
40907;SDS011;51055;59.436;24.778;2023-02-01T06:25:06;12.38;;;3.45;;
40907;SDS011;51055;59.436;24.778;2023-02-01T06:27:34;8.98;;;3.17;;
40907;SDS011;51055;59.436;24.778;2023-02-01T06:30:02;8.07;;;2.75;;
40907;SDS011;51055;59.436;24.778;2023-02-01T06:32:30;7.90;;;2.33;;
40907;SDS011;51055;59.436;24.778;2023-02-01T06:34:58;8.60;;;2.42;;
40907;SDS011;51055;59.436;24.778;2023-02-01T06:37:27;8.90;;;2.80;;
40907;SDS011;51055;59.436;24.778;2023-02-01T06:39:56;7.22;;;2.83;;
40907;SDS011;51055;59.436;24.778;2023-02-01T06:42:23;9.90;;;4.63;;
40907;SDS011;51055;59.436;24.778;2023-02-01T06:44:51;14.35;;;4.78;;
40907;SDS011;51055;59.436;24.778;2023-02-01T06:59:45;13.18;;;4.00;;
40907;SDS011;51055;59.436;24.778;2023-02-01T07:02:13;10.82;;;3.88;;
40907;SDS011;51055;59.436;24.778;2023-02-01T07:04:40;7.85;;;3.70;;
40907;SDS011;51055;59.436;24.778;2023-02-01T07:07:08;10.60;;;3.65;;
40907;SDS011;51055;59.436;24.778;2023-02-01T07:09:35;10.18;;;3.67;;
40907;SDS011;51055;59.436;24.778;2023-02-01T07:12:03;8.85;;;2.50;;
40907;SDS011;51055;59.436;24.778;2023-02-01T07:14:30;9.52;;;2.88;;
40907;SDS011;51055;59.436;24.778;2023-02-01T07:16:57;9.63;;;3.20;;
40907;SDS011;51055;59.436;24.778;2023-02-01T07:19:25;12.05;;;3.28;;
40907;SDS011;51055;59.436;24.778;2023-02-01T07:21:52;11.65;;;2.95;;
40907;SDS011;51055;59.436;24.778;2023-02-01T07:24:19;9.43;;;2.75;;
40907;SDS011;51055;59.436;24.778;2023-02-01T07:26:46;10.57;;;2.80;;
40907;SDS011;51055;59.436;24.778;2023-02-01T07:29:15;10.43;;;2.65;;
40907;SDS011;51055;59.436;24.778;2023-02-01T07:31:42;10.68;;;3.10;;
40907;SDS011;51055;59.436;24.778;2023-02-01T07:34:10;11.55;;;3.20;;
40907;SDS011;51055;59.436;24.778;2023-02-01T07:36:37;12.40;;;3.05;;
40907;SDS011;51055;59.436;24.778;2023-02-01T07:39:05;9.35;;;2.45;;
40907;SDS011;51055;59.436;24.778;2023-02-01T07:41:32;10.48;;;3.03;;
40907;SDS011;51055;59.436;24.778;2023-02-01T07:44:00;7.80;;;3.03;;
40907;SDS011;51055;59.436;24.778;2023-02-01T07:46:28;11.02;;;3.08;;
40907;SDS011;51055;59.436;24.778;2023-02-01T07:48:55;9.50;;;3.35;;
40907;SDS011;51055;59.436;24.778;2023-02-01T07:51:23;8.05;;;3.25;;
40907;SDS011;51055;59.436;24.778;2023-02-01T07:53:50;10.90;;;3.05;;
40907;SDS011;51055;59.436;24.778;2023-02-01T07:56:18;12.60;;;3.13;;
40907;SDS011;51055;59.436;24.778;2023-02-01T07:58:49;9.00;;;2.88;;
40907;SDS011;51055;59.436;24.778;2023-02-01T08:01:18;6.43;;;2.58;;
40907;SDS011;51055;59.436;24.778;2023-02-01T08:03:55;7.40;;;2.17;;
40907;SDS011;51055;59.436;24.778;2023-02-01T08:06:23;10.65;;;3.72;;
40907;SDS011;51055;59.436;24.778;2023-02-01T08:08:52;9.18;;;2.53;;
40907;SDS011;51055;59.436;24.778;2023-02-01T08:11:20;12.38;;;2.72;;
40907;SDS011;51055;59.436;24.778;2023-02-01T08:13:47;10.68;;;2.72;;
40907;SDS011;51055;59.436;24.778;2023-02-01T08:16:15;6.63;;;2.42;;
40907;SDS011;51055;59.436;24.778;2023-02-01T08:18:43;20.95;;;11.10;;
40907;SDS011;51055;59.436;24.778;2023-02-01T08:21:11;22.10;;;11.35;;
40907;SDS011;51055;59.436;24.778;2023-02-01T08:28:37;13.23;;;3.17;;
40907;SDS011;51055;59.436;24.778;2023-02-01T08:31:07;7.70;;;2.60;;
40907;SDS011;51055;59.436;24.778;2023-02-01T08:33:36;9.88;;;3.35;;
40907;SDS011;51055;59.436;24.778;2023-02-01T08:36:04;8.80;;;3.20;;
40907;SDS011;51055;59.436;24.778;2023-02-01T08:38:32;10.15;;;2.58;;
40907;SDS011;51055;59.436;24.778;2023-02-01T08:41:03;10.38;;;2.50;;
40907;SDS011;51055;59.436;24.778;2023-02-01T08:43:30;7.90;;;2.40;;
40907;SDS011;51055;59.436;24.778;2023-02-01T08:45:58;8.25;;;2.45;;
40907;SDS011;51055;59.436;24.778;2023-02-01T08:48:25;9.23;;;2.38;;
40907;SDS011;51055;59.436;24.778;2023-02-01T08:50:52;7.93;;;2.67;;
40907;SDS011;51055;59.436;24.778;2023-02-01T08:53:38;11.05;;;5.40;;
40907;SDS011;51055;59.436;24.778;2023-02-01T08:56:11;10.98;;;3.72;;
40907;SDS011;51055;59.436;24.778;2023-02-01T08:58:38;6.97;;;2.90;;
40907;SDS011;51055;59.436;24.778;2023-02-01T09:01:07;8.70;;;2.75;;
40907;SDS011;51055;59.436;24.778;2023-02-01T09:03:35;9.23;;;2.75;;
40907;SDS011;51055;59.436;24.778;2023-02-01T09:06:03;9.13;;;2.90;;
40907;SDS011;51055;59.436;24.778;2023-02-01T09:08:31;9.50;;;2.50;;
40907;SDS011;51055;59.436;24.778;2023-02-01T09:11:02;6.15;;;2.17;;
40907;SDS011;51055;59.436;24.778;2023-02-01T09:13:30;11.82;;;2.97;;
40907;SDS011;51055;59.436;24.778;2023-02-01T09:15:58;9.35;;;2.55;;
40907;SDS011;51055;59.436;24.778;2023-02-01T09:18:27;9.02;;;2.90;;
40907;SDS011;51055;59.436;24.778;2023-02-01T09:20:54;8.43;;;2.95;;
40907;SDS011;51055;59.436;24.778;2023-02-01T09:23:22;12.80;;;3.22;;
40907;SDS011;51055;59.436;24.778;2023-02-01T09:25:50;9.27;;;2.72;;
40907;SDS011;51055;59.436;24.778;2023-02-01T09:28:18;9.95;;;2.90;;
40907;SDS011;51055;59.436;24.778;2023-02-01T09:30:46;9.32;;;2.85;;
40907;SDS011;51055;59.436;24.778;2023-02-01T09:33:13;9.48;;;2.95;;
40907;SDS011;51055;59.436;24.778;2023-02-01T09:35:41;5.55;;;2.40;;
40907;SDS011;51055;59.436;24.778;2023-02-01T09:38:08;7.47;;;2.53;;
40907;SDS011;51055;59.436;24.778;2023-02-01T09:40:35;10.27;;;2.42;;
40907;SDS011;51055;59.436;24.778;2023-02-01T09:45:43;7.07;;;2.58;;
40907;SDS011;51055;59.436;24.778;2023-02-01T09:48:16;10.18;;;2.70;;
40907;SDS011;51055;59.436;24.778;2023-02-01T09:50:45;8.00;;;2.55;;
40907;SDS011;51055;59.436;24.778;2023-02-01T09:53:25;10.18;;;3.40;;
40907;SDS011;51055;59.436;24.778;2023-02-01T09:55:55;11.98;;;3.00;;
40907;SDS011;51055;59.436;24.778;2023-02-01T09:58:44;9.38;;;2.80;;
40907;SDS011;51055;59.436;24.778;2023-02-01T10:01:16;6.18;;;2.42;;
40907;SDS011;51055;59.436;24.778;2023-02-01T10:03:45;7.57;;;2.40;;
40907;SDS011;51055;59.436;24.778;2023-02-01T10:06:30;7.25;;;2.35;;
40907;SDS011;51055;59.436;24.778;2023-02-01T10:22:02;6.88;;;1.95;;
40907;SDS011;51055;59.436;24.778;2023-02-01T10:24:36;6.25;;;2.50;;
40907;SDS011;51055;59.436;24.778;2023-02-01T10:29:39;6.97;;;2.60;;
40907;SDS011;51055;59.436;24.778;2023-02-01T10:34:33;5.82;;;2.20;;
40907;SDS011;51055;59.436;24.778;2023-02-01T10:37:08;7.10;;;1.98;;
40907;SDS011;51055;59.436;24.778;2023-02-01T10:39:38;5.70;;;2.50;;
40907;SDS011;51055;59.436;24.778;2023-02-01T10:42:07;7.38;;;2.30;;
40907;SDS011;51055;59.436;24.778;2023-02-01T10:44:38;5.72;;;2.35;;
40907;SDS011;51055;59.436;24.778;2023-02-01T10:47:08;7.53;;;2.15;;
40907;SDS011;51055;59.436;24.778;2023-02-01T10:52:14;6.72;;;2.20;;
40907;SDS011;51055;59.436;24.778;2023-02-01T10:54:42;8.65;;;2.58;;
40907;SDS011;51055;59.436;24.778;2023-02-01T10:57:10;6.70;;;2.38;;
40907;SDS011;51055;59.436;24.778;2023-02-01T10:59:38;3.95;;;1.60;;
40907;SDS011;51055;59.436;24.778;2023-02-01T11:02:39;8.02;;;2.20;;
40907;SDS011;51055;59.436;24.778;2023-02-01T11:07:30;7.28;;;2.15;;
40907;SDS011;51055;59.436;24.778;2023-02-01T11:09:58;6.32;;;2.00;;
40907;SDS011;51055;59.436;24.778;2023-02-01T11:12:32;6.40;;;2.28;;
40907;SDS011;51055;59.436;24.778;2023-02-01T11:15:21;8.48;;;2.30;;
40907;SDS011;51055;59.436;24.778;2023-02-01T11:17:48;11.50;;;2.65;;
40907;SDS011;51055;59.436;24.778;2023-02-01T11:20:20;5.03;;;2.25;;
40907;SDS011;51055;59.436;24.778;2023-02-01T11:22:48;7.72;;;2.75;;
40907;SDS011;51055;59.436;24.778;2023-02-01T11:25:19;7.65;;;2.65;;
40907;SDS011;51055;59.436;24.778;2023-02-01T11:27:49;6.05;;;2.00;;
40907;SDS011;51055;59.436;24.778;2023-02-01T11:30:42;8.05;;;2.47;;
40907;SDS011;51055;59.436;24.778;2023-02-01T11:33:14;5.22;;;2.10;;
40907;SDS011;51055;59.436;24.778;2023-02-01T11:35:42;6.35;;;2.42;;
40907;SDS011;51055;59.436;24.778;2023-02-01T11:38:11;10.13;;;2.80;;
40907;SDS011;51055;59.436;24.778;2023-02-01T11:45:33;6.85;;;2.67;;
40907;SDS011;51055;59.436;24.778;2023-02-01T11:48:02;7.13;;;2.40;;
40907;SDS011;51055;59.436;24.778;2023-02-01T11:50:42;9.23;;;2.30;;
40907;SDS011;51055;59.436;24.778;2023-02-01T11:53:30;8.15;;;2.50;;
40907;SDS011;51055;59.436;24.778;2023-02-01T11:56:08;7.00;;;2.67;;
40907;SDS011;51055;59.436;24.778;2023-02-01T11:58:49;6.63;;;2.17;;
40907;SDS011;51055;59.436;24.778;2023-02-01T12:06:44;5.80;;;1.90;;
40907;SDS011;51055;59.436;24.778;2023-02-01T12:22:27;7.03;;;2.30;;
40907;SDS011;51055;59.436;24.778;2023-02-01T12:41:23;5.75;;;2.10;;
40907;SDS011;51055;59.436;24.778;2023-02-01T12:44:17;8.43;;;2.20;;
40907;SDS011;51055;59.436;24.778;2023-02-01T12:46:47;6.30;;;2.00;;
40907;SDS011;51055;59.436;24.778;2023-02-01T12:49:51;6.53;;;2.30;;
40907;SDS011;51055;59.436;24.778;2023-02-01T12:52:10;6.13;;;2.20;;
40907;SDS011;51055;59.436;24.778;2023-02-01T12:57:15;7.25;;;2.00;;
40907;SDS011;51055;59.436;24.778;2023-02-01T12:59:48;7.82;;;2.10;;
40907;SDS011;51055;59.436;24.778;2023-02-01T13:05:12;6.00;;;1.83;;
40907;SDS011;51055;59.436;24.778;2023-02-01T13:10:18;8.73;;;2.55;;
40907;SDS011;51055;59.436;24.778;2023-02-01T13:12:56;7.40;;;2.70;;
40907;SDS011;51055;59.436;24.778;2023-02-01T13:15:31;7.45;;;2.72;;
40907;SDS011;51055;59.436;24.778;2023-02-01T13:18:01;8.18;;;2.13;;
40907;SDS011;51055;59.436;24.778;2023-02-01T13:20:31;6.13;;;2.47;;
40907;SDS011;51055;59.436;24.778;2023-02-01T13:23:07;8.82;;;2.53;;
40907;SDS011;51055;59.436;24.778;2023-02-01T13:25:38;5.13;;;2.10;;
40907;SDS011;51055;59.436;24.778;2023-02-01T13:28:10;7.35;;;2.25;;
40907;SDS011;51055;59.436;24.778;2023-02-01T13:44:19;7.00;;;2.42;;
40907;SDS011;51055;59.436;24.778;2023-02-01T13:46:48;10.82;;;3.00;;
40907;SDS011;51055;59.436;24.778;2023-02-01T13:49:23;10.00;;;3.00;;
40907;SDS011;51055;59.436;24.778;2023-02-01T13:51:53;11.98;;;4.75;;
40907;SDS011;51055;59.436;24.778;2023-02-01T13:57:00;8.93;;;2.72;;
40907;SDS011;51055;59.436;24.778;2023-02-01T14:04:53;7.18;;;2.53;;
40907;SDS011;51055;59.436;24.778;2023-02-01T14:07:22;6.22;;;2.47;;
40907;SDS011;51055;59.436;24.778;2023-02-01T14:09:49;6.80;;;3.03;;
40907;SDS011;51055;59.436;24.778;2023-02-01T14:15:24;8.07;;;2.47;;
40907;SDS011;51055;59.436;24.778;2023-02-01T14:17:51;6.18;;;2.15;;
40907;SDS011;51055;59.436;24.778;2023-02-01T14:20:39;10.77;;;2.92;;
40907;SDS011;51055;59.436;24.778;2023-02-01T14:23:11;5.65;;;2.33;;
40907;SDS011;51055;59.436;24.778;2023-02-01T14:25:39;8.50;;;3.00;;
40907;SDS011;51055;59.436;24.778;2023-02-01T14:28:10;7.03;;;2.78;;
40907;SDS011;51055;59.436;24.778;2023-02-01T14:30:38;8.95;;;2.50;;
40907;SDS011;51055;59.436;24.778;2023-02-01T14:33:11;8.13;;;2.80;;
40907;SDS011;51055;59.436;24.778;2023-02-01T14:35:52;9.98;;;2.72;;
40907;SDS011;51055;59.436;24.778;2023-02-01T14:38:22;6.78;;;2.58;;
40907;SDS011;51055;59.436;24.778;2023-02-01T14:40:49;8.38;;;3.30;;
40907;SDS011;51055;59.436;24.778;2023-02-01T14:43:16;9.23;;;3.45;;
40907;SDS011;51055;59.436;24.778;2023-02-01T14:45:59;9.30;;;3.20;;
40907;SDS011;51055;59.436;24.778;2023-02-01T14:50:59;10.00;;;3.65;;
40907;SDS011;51055;59.436;24.778;2023-02-01T14:53:32;11.35;;;3.67;;
40907;SDS011;51055;59.436;24.778;2023-02-01T14:56:04;8.68;;;3.38;;
40907;SDS011;51055;59.436;24.778;2023-02-01T15:06:41;9.27;;;4.38;;
40907;SDS011;51055;59.436;24.778;2023-02-01T15:09:24;10.38;;;3.90;;
40907;SDS011;51055;59.436;24.778;2023-02-01T15:14:22;10.95;;;5.05;;
40907;SDS011;51055;59.436;24.778;2023-02-01T15:16:49;9.95;;;4.45;;
40907;SDS011;51055;59.436;24.778;2023-02-01T15:19:23;9.98;;;3.72;;
40907;SDS011;51055;59.436;24.778;2023-02-01T15:21:52;10.77;;;3.42;;
40907;SDS011;51055;59.436;24.778;2023-02-01T15:24:21;9.55;;;4.05;;
40907;SDS011;51055;59.436;24.778;2023-02-01T15:29:16;11.45;;;3.65;;
40907;SDS011;51055;59.436;24.778;2023-02-01T15:31:45;10.88;;;3.55;;
40907;SDS011;51055;59.436;24.778;2023-02-01T15:36:40;10.32;;;4.07;;
40907;SDS011;51055;59.436;24.778;2023-02-01T15:39:20;9.65;;;3.45;;
40907;SDS011;51055;59.436;24.778;2023-02-01T15:41:51;7.85;;;3.30;;
40907;SDS011;51055;59.436;24.778;2023-02-01T15:44:22;9.07;;;3.53;;
40907;SDS011;51055;59.436;24.778;2023-02-01T15:46:54;10.10;;;3.22;;
40907;SDS011;51055;59.436;24.778;2023-02-01T15:51:52;13.63;;;4.10;;
40907;SDS011;51055;59.436;24.778;2023-02-01T15:54:43;12.23;;;4.53;;
40907;SDS011;51055;59.436;24.778;2023-02-01T15:57:08;14.20;;;6.07;;
40907;SDS011;51055;59.436;24.778;2023-02-01T15:59:37;15.98;;;5.47;;
40907;SDS011;51055;59.436;24.778;2023-02-01T16:04:54;12.93;;;4.00;;
40907;SDS011;51055;59.436;24.778;2023-02-01T16:07:26;10.95;;;4.20;;
40907;SDS011;51055;59.436;24.778;2023-02-01T16:09:55;9.65;;;3.42;;
40907;SDS011;51055;59.436;24.778;2023-02-01T16:14:56;22.65;;;11.68;;
40907;SDS011;51055;59.436;24.778;2023-02-01T16:17:23;13.10;;;6.03;;
40907;SDS011;51055;59.436;24.778;2023-02-01T16:19:51;10.75;;;4.38;;
40907;SDS011;51055;59.436;24.778;2023-02-01T16:22:18;8.27;;;3.72;;
40907;SDS011;51055;59.436;24.778;2023-02-01T16:24:45;9.80;;;3.72;;
40907;SDS011;51055;59.436;24.778;2023-02-01T16:27:13;8.27;;;3.58;;
40907;SDS011;51055;59.436;24.778;2023-02-01T16:29:40;13.63;;;7.53;;
40907;SDS011;51055;59.436;24.778;2023-02-01T16:32:26;6.30;;;3.00;;
40907;SDS011;51055;59.436;24.778;2023-02-01T16:34:54;10.13;;;4.25;;
40907;SDS011;51055;59.436;24.778;2023-02-01T16:37:24;11.80;;;3.83;;
40907;SDS011;51055;59.436;24.778;2023-02-01T16:39:51;7.38;;;3.33;;
40907;SDS011;51055;59.436;24.778;2023-02-01T16:42:19;11.98;;;4.93;;
40907;SDS011;51055;59.436;24.778;2023-02-01T16:44:46;11.23;;;4.70;;
40907;SDS011;51055;59.436;24.778;2023-02-01T16:47:17;13.02;;;4.22;;
40907;SDS011;51055;59.436;24.778;2023-02-01T16:49:49;7.70;;;4.10;;
40907;SDS011;51055;59.436;24.778;2023-02-01T16:52:23;13.48;;;4.35;;
40907;SDS011;51055;59.436;24.778;2023-02-01T16:54:51;12.60;;;4.60;;
40907;SDS011;51055;59.436;24.778;2023-02-01T16:57:20;10.15;;;4.63;;
40907;SDS011;51055;59.436;24.778;2023-02-01T16:59:50;12.23;;;3.85;;
40907;SDS011;51055;59.436;24.778;2023-02-01T17:02:18;9.52;;;4.10;;
40907;SDS011;51055;59.436;24.778;2023-02-01T17:04:46;9.75;;;2.90;;
40907;SDS011;51055;59.436;24.778;2023-02-01T17:07:16;13.00;;;3.85;;
40907;SDS011;51055;59.436;24.778;2023-02-01T17:09:43;9.35;;;3.60;;
40907;SDS011;51055;59.436;24.778;2023-02-01T17:12:20;14.10;;;3.90;;
40907;SDS011;51055;59.436;24.778;2023-02-01T17:14:48;11.05;;;3.53;;
40907;SDS011;51055;59.436;24.778;2023-02-01T17:17:17;6.90;;;2.67;;
40907;SDS011;51055;59.436;24.778;2023-02-01T17:19:59;8.80;;;3.60;;
40907;SDS011;51055;59.436;24.778;2023-02-01T17:22:26;11.88;;;3.80;;
40907;SDS011;51055;59.436;24.778;2023-02-01T17:24:54;12.30;;;4.38;;
40907;SDS011;51055;59.436;24.778;2023-02-01T17:27:21;15.63;;;3.80;;
40907;SDS011;51055;59.436;24.778;2023-02-01T17:29:49;7.80;;;3.47;;
40907;SDS011;51055;59.436;24.778;2023-02-01T17:32:18;11.85;;;3.60;;
40907;SDS011;51055;59.436;24.778;2023-02-01T17:34:47;7.32;;;3.42;;
40907;SDS011;51055;59.436;24.778;2023-02-01T17:37:22;8.73;;;3.67;;
40907;SDS011;51055;59.436;24.778;2023-02-01T17:39:52;7.47;;;3.42;;
40907;SDS011;51055;59.436;24.778;2023-02-01T17:42:23;8.48;;;3.95;;
40907;SDS011;51055;59.436;24.778;2023-02-01T17:44:52;8.38;;;3.80;;
40907;SDS011;51055;59.436;24.778;2023-02-01T17:47:22;10.95;;;3.92;;
40907;SDS011;51055;59.436;24.778;2023-02-01T17:49:49;10.93;;;4.68;;